sensor_id;sensor_type;location;lat;lon;timestamp;pressure;altitude;pressure_sealevel;temperature;humidity
58955;BME280;45815;52.334;5.024;2022-07-23T00:02:18;101998.16;;;17.06;100.00
58955;BME280;45815;52.334;5.024;2022-07-23T00:04:43;101993.72;;;17.03;100.00
58955;BME280;45815;52.334;5.024;2022-07-23T00:07:08;101998.16;;;17.03;100.00
58955;BME280;45815;52.334;5.024;2022-07-23T00:09:34;101994.59;;;17.01;100.00
58955;BME280;45815;52.334;5.024;2022-07-23T00:11:59;101981.28;;;16.99;100.00
58955;BME280;45815;52.334;5.024;2022-07-23T00:14:24;101996.31;;;16.99;100.00
58955;BME280;45815;52.334;5.024;2022-07-23T00:16:50;101992.75;;;16.94;100.00
58955;BME280;45815;52.334;5.024;2022-07-23T00:19:15;101994.44;;;16.90;100.00
58955;BME280;45815;52.334;5.024;2022-07-23T00:21:41;101986.47;;;16.87;100.00
58955;BME280;45815;52.334;5.024;2022-07-23T00:24:06;101984.72;;;16.86;100.00
58955;BME280;45815;52.334;5.024;2022-07-23T00:26:31;101985.56;;;16.85;100.00
58955;BME280;45815;52.334;5.024;2022-07-23T00:28:57;101975.78;;;16.81;100.00
58955;BME280;45815;52.334;5.024;2022-07-23T00:31:22;101982.00;;;16.81;100.00
58955;BME280;45815;52.334;5.024;2022-07-23T00:33:48;101982.84;;;16.79;100.00
58955;BME280;45815;52.334;5.024;2022-07-23T00:36:13;101977.56;;;16.79;100.00
58955;BME280;45815;52.334;5.024;2022-07-23T00:38:38;101978.34;;;16.76;100.00
58955;BME280;45815;52.334;5.024;2022-07-23T00:41:04;101967.72;;;16.73;100.00
58955;BME280;45815;52.334;5.024;2022-07-23T00:43:30;101959.75;;;16.72;100.00
58955;BME280;45815;52.334;5.024;2022-07-23T00:45:55;101962.41;;;16.72;100.00
58955;BME280;45815;52.334;5.024;2022-07-23T00:48:21;101963.28;;;16.71;100.00
58955;BME280;45815;52.334;5.024;2022-07-23T00:50:46;101965.91;;;16.71;100.00
58955;BME280;45815;52.334;5.024;2022-07-23T00:53:12;101957.94;;;16.67;100.00
58955;BME280;45815;52.334;5.024;2022-07-23T00:55:38;101954.34;;;16.62;100.00
58955;BME280;45815;52.334;5.024;2022-07-23T00:58:04;101970.25;;;16.62;100.00
58955;BME280;45815;52.334;5.024;2022-07-23T01:00:30;101954.25;;;16.56;100.00
58955;BME280;45815;52.334;5.024;2022-07-23T01:02:55;101948.84;;;16.47;100.00
58955;BME280;45815;52.334;5.024;2022-07-23T01:05:21;101949.78;;;16.51;100.00
58955;BME280;45815;52.334;5.024;2022-07-23T01:07:50;101948.88;;;16.50;100.00
58955;BME280;45815;52.334;5.024;2022-07-23T01:10:17;101952.44;;;16.52;100.00
58955;BME280;45815;52.334;5.024;2022-07-23T01:13:06;101953.25;;;16.48;100.00
58955;BME280;45815;52.334;5.024;2022-07-23T01:15:33;101950.69;;;16.51;100.00
58955;BME280;45815;52.334;5.024;2022-07-23T01:17:59;101943.53;;;16.47;100.00
58955;BME280;45815;52.334;5.024;2022-07-23T01:20:25;101935.50;;;16.41;100.00
58955;BME280;45815;52.334;5.024;2022-07-23T01:22:52;101947.13;;;16.49;100.00
58955;BME280;45815;52.334;5.024;2022-07-23T01:25:19;101941.81;;;16.49;100.00
58955;BME280;45815;52.334;5.024;2022-07-23T01:27:53;101928.50;;;16.44;100.00
58955;BME280;45815;52.334;5.024;2022-07-23T01:30:19;101932.00;;;16.42;100.00
58955;BME280;45815;52.334;5.024;2022-07-23T01:32:45;101932.84;;;16.41;100.00
58955;BME280;45815;52.334;5.024;2022-07-23T01:35:11;101930.25;;;16.42;100.00
58955;BME280;45815;52.334;5.024;2022-07-23T01:37:37;101940.81;;;16.41;100.00
58955;BME280;45815;52.334;5.024;2022-07-23T01:40:05;101925.78;;;16.40;100.00
58955;BME280;45815;52.334;5.024;2022-07-23T01:42:31;101939.97;;;16.42;100.00
58955;BME280;45815;52.334;5.024;2022-07-23T01:44:56;101942.59;;;16.42;100.00
58955;BME280;45815;52.334;5.024;2022-07-23T01:47:22;101931.97;;;16.39;100.00
58955;BME280;45815;52.334;5.024;2022-07-23T01:49:50;101929.34;;;16.43;100.00
58955;BME280;45815;52.334;5.024;2022-07-23T01:52:40;101931.09;;;16.40;100.00
58955;BME280;45815;52.334;5.024;2022-07-23T01:55:07;101930.19;;;16.38;100.00
58955;BME280;45815;52.334;5.024;2022-07-23T01:57:34;101933.72;;;16.37;100.00
58955;BME280;45815;52.334;5.024;2022-07-23T01:59:59;101931.03;;;16.35;100.00
58955;BME280;45815;52.334;5.024;2022-07-23T02:02:25;101929.28;;;16.36;100.00
58955;BME280;45815;52.334;5.024;2022-07-23T02:04:52;101929.25;;;16.33;100.00
58955;BME280;45815;52.334;5.024;2022-07-23T02:07:20;101930.13;;;16.33;100.00
58955;BME280;45815;52.334;5.024;2022-07-23T02:09:45;101921.19;;;16.27;100.00
58955;BME280;45815;52.334;5.024;2022-07-23T02:12:11;101925.63;;;16.26;100.00
58955;BME280;45815;52.334;5.024;2022-07-23T02:14:37;101921.16;;;16.23;100.00
58955;BME280;45815;52.334;5.024;2022-07-23T02:17:02;101919.41;;;16.22;100.00
58955;BME280;45815;52.334;5.024;2022-07-23T02:19:28;101922.00;;;16.19;100.00
58955;BME280;45815;52.334;5.024;2022-07-23T02:21:54;101929.09;;;16.20;100.00
58955;BME280;45815;52.334;5.024;2022-07-23T02:24:20;101928.19;;;16.18;100.00
58955;BME280;45815;52.334;5.024;2022-07-23T02:26:45;101925.53;;;16.18;100.00
58955;BME280;45815;52.334;5.024;2022-07-23T02:29:11;101929.03;;;16.17;100.00
58955;BME280;45815;52.334;5.024;2022-07-23T02:31:36;101921.94;;;16.13;100.00
58955;BME280;45815;52.334;5.024;2022-07-23T02:34:02;101937.00;;;16.19;100.00
58955;BME280;45815;52.334;5.024;2022-07-23T02:36:29;101932.63;;;16.21;100.00
58955;BME280;45815;52.334;5.024;2022-07-23T02:38:55;101938.78;;;16.18;100.00
58955;BME280;45815;52.334;5.024;2022-07-23T02:41:21;101938.75;;;16.17;100.00
58955;BME280;45815;52.334;5.024;2022-07-23T02:43:46;101945.88;;;16.21;100.00
58955;BME280;45815;52.334;5.024;2022-07-23T02:46:13;101940.53;;;16.19;100.00
58955;BME280;45815;52.334;5.024;2022-07-23T02:48:39;101955.63;;;16.27;100.00
58955;BME280;45815;52.334;5.024;2022-07-23T02:51:05;101955.69;;;16.28;100.00
58955;BME280;45815;52.334;5.024;2022-07-23T02:53:36;101961.88;;;16.30;100.00
58955;BME280;45815;52.334;5.024;2022-07-23T02:56:01;101956.66;;;16.35;100.00
58955;BME280;45815;52.334;5.024;2022-07-23T02:58:27;101960.22;;;16.37;100.00
58955;BME280;45815;52.334;5.024;2022-07-23T03:00:53;101962.88;;;16.37;100.00
58955;BME280;45815;52.334;5.024;2022-07-23T03:03:18;101971.69;;;16.37;100.00
58955;BME280;45815;52.334;5.024;2022-07-23T03:05:44;101965.44;;;16.34;100.00
58955;BME280;45815;52.334;5.024;2022-07-23T03:08:09;101961.03;;;16.33;100.00
58955;BME280;45815;52.334;5.024;2022-07-23T03:10:37;101971.63;;;16.33;100.00
58955;BME280;45815;52.334;5.024;2022-07-23T03:13:02;101968.06;;;16.31;100.00
58955;BME280;45815;52.334;5.024;2022-07-23T03:15:28;101955.72;;;16.30;100.00
58955;BME280;45815;52.334;5.024;2022-07-23T03:17:53;101945.91;;;16.24;100.00
58955;BME280;45815;52.334;5.024;2022-07-23T03:20:19;101954.75;;;16.26;100.00
58955;BME280;45815;52.334;5.024;2022-07-23T03:22:44;101956.53;;;16.25;100.00
58955;BME280;45815;52.334;5.024;2022-07-23T03:25:09;101950.34;;;16.25;100.00
58955;BME280;45815;52.334;5.024;2022-07-23T03:27:35;101949.44;;;16.23;100.00
58955;BME280;45815;52.334;5.024;2022-07-23T03:30:01;101953.78;;;16.19;100.00
58955;BME280;45815;52.334;5.024;2022-07-23T03:32:26;101940.47;;;16.15;100.00
58955;BME280;45815;52.334;5.024;2022-07-23T03:34:52;101945.72;;;16.09;100.00
58955;BME280;45815;52.334;5.024;2022-07-23T03:37:19;101950.94;;;16.06;100.00
58955;BME280;45815;52.334;5.024;2022-07-23T03:39:45;101949.06;;;15.98;100.00
58955;BME280;45815;52.334;5.024;2022-07-23T03:42:11;101941.09;;;15.95;100.00
58955;BME280;45815;52.334;5.024;2022-07-23T03:44:36;101948.97;;;15.91;100.00
58955;BME280;45815;52.334;5.024;2022-07-23T03:47:06;101941.84;;;15.85;100.00
58955;BME280;45815;52.334;5.024;2022-07-23T03:49:31;101947.06;;;15.82;100.00
58955;BME280;45815;52.334;5.024;2022-07-23T03:51:57;101942.59;;;15.78;100.00
58955;BME280;45815;52.334;5.024;2022-07-23T03:54:22;101943.50;;;15.80;100.00
58955;BME280;45815;52.334;5.024;2022-07-23T03:56:48;101947.03;;;15.79;100.00
58955;BME280;45815;52.334;5.024;2022-07-23T03:59:13;101946.16;;;15.78;100.00
58955;BME280;45815;52.334;5.024;2022-07-23T04:01:39;101947.03;;;15.79;100.00
58955;BME280;45815;52.334;5.024;2022-07-23T04:04:04;101931.06;;;15.74;100.00
58955;BME280;45815;52.334;5.024;2022-07-23T04:06:30;101935.63;;;15.85;100.00
58955;BME280;45815;52.334;5.024;2022-07-23T04:08:57;101926.69;;;15.76;100.00
58955;BME280;45815;52.334;5.024;2022-07-23T04:11:23;101943.56;;;15.83;100.00
58955;BME280;45815;52.334;5.024;2022-07-23T04:13:48;101935.44;;;15.72;100.00
58955;BME280;45815;52.334;5.024;2022-07-23T04:16:14;101952.31;;;15.79;100.00
58955;BME280;45815;52.334;5.024;2022-07-23T04:18:40;101947.91;;;15.79;100.00
58955;BME280;45815;52.334;5.024;2022-07-23T04:21:11;101960.34;;;15.83;100.00
58955;BME280;45815;52.334;5.024;2022-07-23T04:23:37;101950.63;;;15.84;100.00
58955;BME280;45815;52.334;5.024;2022-07-23T04:26:04;101953.34;;;15.89;100.00
58955;BME280;45815;52.334;5.024;2022-07-23T04:28:30;101949.88;;;15.93;100.00
58955;BME280;45815;52.334;5.024;2022-07-23T04:30:57;101941.03;;;15.91;100.00
58955;BME280;45815;52.334;5.024;2022-07-23T04:33:22;101939.25;;;15.91;100.00
58955;BME280;45815;52.334;5.024;2022-07-23T04:35:50;101954.41;;;16.00;100.00
58955;BME280;45815;52.334;5.024;2022-07-23T04:38:18;101941.16;;;16.00;100.00
58955;BME280;45815;52.334;5.024;2022-07-23T04:40:45;101948.28;;;16.04;100.00
58955;BME280;45815;52.334;5.024;2022-07-23T04:43:10;101947.41;;;16.05;100.00
58955;BME280;45815;52.334;5.024;2022-07-23T04:45:43;101951.84;;;16.06;100.00
58955;BME280;45815;52.334;5.024;2022-07-23T04:48:08;101959.84;;;16.09;100.00
58955;BME280;45815;52.334;5.024;2022-07-23T04:50:34;101960.75;;;16.11;100.00
58955;BME280;45815;52.334;5.024;2022-07-23T04:52:59;101969.56;;;16.12;100.00
58955;BME280;45815;52.334;5.024;2022-07-23T04:55:25;101964.28;;;16.12;100.00
58955;BME280;45815;52.334;5.024;2022-07-23T04:57:50;101966.06;;;16.14;100.00
58955;BME280;45815;52.334;5.024;2022-07-23T05:00:16;101967.03;;;16.18;100.00
58955;BME280;45815;52.334;5.024;2022-07-23T05:02:41;101961.72;;;16.19;100.00
58955;BME280;45815;52.334;5.024;2022-07-23T05:05:07;101951.94;;;16.15;100.00
58955;BME280;45815;52.334;5.024;2022-07-23T05:07:33;101959.19;;;16.27;100.00
58955;BME280;45815;52.334;5.024;2022-07-23T05:09:59;101956.59;;;16.32;100.00
58955;BME280;45815;52.334;5.024;2022-07-23T05:12:24;101954.03;;;16.38;100.00
58955;BME280;45815;52.334;5.024;2022-07-23T05:14:49;101954.06;;;16.41;100.00
58955;BME280;45815;52.334;5.024;2022-07-23T05:17:15;101953.28;;;16.46;100.00
58955;BME280;45815;52.334;5.024;2022-07-23T05:19:40;101963.94;;;16.51;100.00
58955;BME280;45815;52.334;5.024;2022-07-23T05:22:06;101966.59;;;16.54;100.00
58955;BME280;45815;52.334;5.024;2022-07-23T05:24:31;101959.59;;;16.59;100.00
58955;BME280;45815;52.334;5.024;2022-07-23T05:26:57;101964.03;;;16.62;100.00
58955;BME280;45815;52.334;5.024;2022-07-23T05:29:22;101970.28;;;16.65;100.00
58955;BME280;45815;52.334;5.024;2022-07-23T05:31:48;101961.44;;;16.66;100.00
58955;BME280;45815;52.334;5.024;2022-07-23T05:34:13;101961.44;;;16.66;100.00
58955;BME280;45815;52.334;5.024;2022-07-23T05:36:39;101964.16;;;16.70;100.00
58955;BME280;45815;52.334;5.024;2022-07-23T05:39:04;101966.81;;;16.73;100.00
58955;BME280;45815;52.334;5.024;2022-07-23T05:41:32;101965.94;;;16.74;100.00
58955;BME280;45815;52.334;5.024;2022-07-23T05:43:59;101977.47;;;16.76;100.00
58955;BME280;45815;52.334;5.024;2022-07-23T05:46:26;101973.91;;;16.74;100.00
58955;BME280;45815;52.334;5.024;2022-07-23T05:48:57;101979.22;;;16.75;100.00
58955;BME280;45815;52.334;5.024;2022-07-23T05:51:40;101981.09;;;16.81;100.00
58955;BME280;45815;52.334;5.024;2022-07-23T05:54:06;101982.88;;;16.82;100.00
58955;BME280;45815;52.334;5.024;2022-07-23T05:56:36;101973.00;;;16.73;100.00
58955;BME280;45815;52.334;5.024;2022-07-23T05:59:01;101987.31;;;16.81;100.00
58955;BME280;45815;52.334;5.024;2022-07-23T06:01:27;101982.88;;;16.82;100.00
58955;BME280;45815;52.334;5.024;2022-07-23T06:04:03;101981.97;;;16.80;100.00
58955;BME280;45815;52.334;5.024;2022-07-23T06:06:33;101985.50;;;16.80;100.00
58955;BME280;45815;52.334;5.024;2022-07-23T06:08:59;101988.19;;;16.82;100.00
58955;BME280;45815;52.334;5.024;2022-07-23T06:11:24;101988.22;;;16.83;100.00
58955;BME280;45815;52.334;5.024;2022-07-23T06:13:50;101992.63;;;16.84;100.00
58955;BME280;45815;52.334;5.024;2022-07-23T06:16:16;101986.47;;;16.87;100.00
58955;BME280;45815;52.334;5.024;2022-07-23T06:18:41;101998.00;;;16.89;100.00
58955;BME280;45815;52.334;5.024;2022-07-23T06:21:07;101990.91;;;16.88;100.00
58955;BME280;45815;52.334;5.024;2022-07-23T06:23:32;101990.06;;;16.92;100.00
58955;BME280;45815;52.334;5.024;2022-07-23T06:25:58;101994.53;;;16.96;100.00
58955;BME280;45815;52.334;5.024;2022-07-23T06:28:23;101990.13;;;16.95;100.00
58955;BME280;45815;52.334;5.024;2022-07-23T06:30:49;101999.88;;;17.01;100.00
58955;BME280;45815;52.334;5.024;2022-07-23T06:33:15;102003.50;;;17.09;100.00
58955;BME280;45815;52.334;5.024;2022-07-23T06:35:40;101998.34;;;17.21;100.00
58955;BME280;45815;52.334;5.024;2022-07-23T06:38:06;101996.69;;;17.34;100.00
58955;BME280;45815;52.334;5.024;2022-07-23T06:40:32;101995.00;;;17.42;100.00
58955;BME280;45815;52.334;5.024;2022-07-23T06:42:57;102003.06;;;17.51;100.00
58955;BME280;45815;52.334;5.024;2022-07-23T06:45:25;102002.22;;;17.57;100.00
58955;BME280;45815;52.334;5.024;2022-07-23T06:47:51;102006.72;;;17.66;100.00
58955;BME280;45815;52.334;5.024;2022-07-23T06:50:17;102004.13;;;17.75;100.00
58955;BME280;45815;52.334;5.024;2022-07-23T06:52:43;102010.34;;;17.79;100.00
58955;BME280;45815;52.334;5.024;2022-07-23T06:55:09;102001.59;;;17.84;100.00
58955;BME280;45815;52.334;5.024;2022-07-23T06:57:34;101996.22;;;17.81;100.00
58955;BME280;45815;52.334;5.024;2022-07-23T06:59:59;101993.56;;;17.80;100.00
58955;BME280;45815;52.334;5.024;2022-07-23T07:02:25;102008.56;;;17.79;100.00
58955;BME280;45815;52.334;5.024;2022-07-23T07:04:50;102012.13;;;17.78;100.00
58955;BME280;45815;52.334;5.024;2022-07-23T07:07:15;102016.56;;;17.78;100.00
58955;BME280;45815;52.334;5.024;2022-07-23T07:09:41;102018.31;;;17.77;100.00
58955;BME280;45815;52.334;5.024;2022-07-23T07:12:06;102021.84;;;17.79;100.00
58955;BME280;45815;52.334;5.024;2022-07-23T07:14:32;102022.75;;;17.78;100.00
58955;BME280;45815;52.334;5.024;2022-07-23T07:16:57;102022.72;;;17.75;100.00
58955;BME280;45815;52.334;5.024;2022-07-23T07:19:22;102020.94;;;17.74;100.00
58955;BME280;45815;52.334;5.024;2022-07-23T07:21:48;102022.72;;;17.75;100.00
58955;BME280;45815;52.334;5.024;2022-07-23T07:24:13;102024.50;;;17.76;100.00
58955;BME280;45815;52.334;5.024;2022-07-23T07:26:39;102035.13;;;17.76;100.00
58955;BME280;45815;52.334;5.024;2022-07-23T07:29:05;102037.78;;;17.79;100.00
58955;BME280;45815;52.334;5.024;2022-07-23T07:31:31;102037.84;;;17.81;100.00
58955;BME280;45815;52.334;5.024;2022-07-23T07:33:56;102042.25;;;17.80;100.00
58955;BME280;45815;52.334;5.024;2022-07-23T07:36:22;102029.81;;;17.79;100.00
58955;BME280;45815;52.334;5.024;2022-07-23T07:38:47;102037.03;;;17.86;100.00
58955;BME280;45815;52.334;5.024;2022-07-23T07:41:13;102040.56;;;17.88;100.00
58955;BME280;45815;52.334;5.024;2022-07-23T07:43:38;102036.19;;;17.92;100.00
58955;BME280;45815;52.334;5.024;2022-07-23T07:46:04;102034.41;;;17.96;100.00
58955;BME280;45815;52.334;5.024;2022-07-23T07:48:29;102023.81;;;18.00;100.00
58955;BME280;45815;52.334;5.024;2022-07-23T07:50:55;102027.41;;;18.01;100.00
58955;BME280;45815;52.334;5.024;2022-07-23T07:53:20;102033.63;;;18.03;100.00
58955;BME280;45815;52.334;5.024;2022-07-23T07:55:46;102019.44;;;18.01;100.00
58955;BME280;45815;52.334;5.024;2022-07-23T07:58:11;102033.69;;;18.15;100.00
58955;BME280;45815;52.334;5.024;2022-07-23T08:00:37;102040.81;;;18.19;100.00
58955;BME280;45815;52.334;5.024;2022-07-23T08:03:02;102039.97;;;18.26;100.00
58955;BME280;45815;52.334;5.024;2022-07-23T08:05:29;102047.09;;;18.35;100.00
58955;BME280;45815;52.334;5.024;2022-07-23T08:07:56;102042.66;;;18.34;100.00
58955;BME280;45815;52.334;5.024;2022-07-23T08:10:22;102046.25;;;18.44;100.00
58955;BME280;45815;52.334;5.024;2022-07-23T08:12:50;102046.31;;;18.56;100.00
58955;BME280;45815;52.334;5.024;2022-07-23T08:15:17;102048.16;;;18.68;100.00
58955;BME280;45815;52.334;5.024;2022-07-23T08:17:45;102054.47;;;18.84;100.00
58955;BME280;45815;52.334;5.024;2022-07-23T08:20:12;102051.00;;;19.02;100.00
58955;BME280;45815;52.334;5.024;2022-07-23T08:22:44;102048.38;;;19.18;100.00
58955;BME280;45815;52.334;5.024;2022-07-23T08:25:09;102044.88;;;19.43;100.00
58955;BME280;45815;52.334;5.024;2022-07-23T08:27:35;102047.59;;;19.63;100.00
58955;BME280;45815;52.334;5.024;2022-07-23T08:30:00;102045.84;;;19.86;100.00
58955;BME280;45815;52.334;5.024;2022-07-23T08:32:26;102047.63;;;20.12;100.00
58955;BME280;45815;52.334;5.024;2022-07-23T08:34:51;102038.66;;;20.42;100.00
58955;BME280;45815;52.334;5.024;2022-07-23T08:37:16;102035.94;;;20.66;100.00
58955;BME280;45815;52.334;5.024;2022-07-23T08:39:42;102042.06;;;20.96;100.00
58955;BME280;45815;52.334;5.024;2022-07-23T08:42:07;102041.91;;;21.24;100.00
58955;BME280;45815;52.334;5.024;2022-07-23T08:44:35;102041.78;;;21.44;100.00
58955;BME280;45815;52.334;5.024;2022-07-23T08:47:00;102047.91;;;21.61;100.00
58955;BME280;45815;52.334;5.024;2022-07-23T08:49:26;102049.50;;;21.87;100.00
58955;BME280;45815;52.334;5.024;2022-07-23T08:51:52;102046.63;;;22.05;100.00
58955;BME280;45815;52.334;5.024;2022-07-23T08:54:18;102052.81;;;22.13;100.00
58955;BME280;45815;52.334;5.024;2022-07-23T08:56:44;102049.19;;;22.21;100.00
58955;BME280;45815;52.334;5.024;2022-07-23T08:59:09;102049.88;;;22.41;100.00
58955;BME280;45815;52.334;5.024;2022-07-23T09:01:39;102051.44;;;22.61;100.00
58955;BME280;45815;52.334;5.024;2022-07-23T09:04:04;102044.16;;;22.73;100.00
58955;BME280;45815;52.334;5.024;2022-07-23T09:06:30;102056.34;;;22.96;100.00
58955;BME280;45815;52.334;5.024;2022-07-23T09:08:55;102061.34;;;23.25;100.00
58955;BME280;45815;52.334;5.024;2022-07-23T09:11:21;102054.88;;;23.42;100.00
58955;BME280;45815;52.334;5.024;2022-07-23T09:13:51;102060.03;;;23.55;100.00
58955;BME280;45815;52.334;5.024;2022-07-23T09:16:29;102060.69;;;23.68;100.00
58955;BME280;45815;52.334;5.024;2022-07-23T09:18:55;102056.91;;;23.83;100.00
58955;BME280;45815;52.334;5.024;2022-07-23T09:21:25;102060.06;;;24.07;100.00
58955;BME280;45815;52.334;5.024;2022-07-23T09:24:02;102059.09;;;24.12;100.00
58955;BME280;45815;52.334;5.024;2022-07-23T09:26:36;102056.06;;;24.31;100.00
58955;BME280;45815;52.334;5.024;2022-07-23T09:31:32;102054.66;;;24.58;100.00
58955;BME280;45815;52.334;5.024;2022-07-23T09:34:08;102050.72;;;24.76;100.00
58955;BME280;45815;52.334;5.024;2022-07-23T09:36:34;102043.19;;;24.93;100.00
58955;BME280;45815;52.334;5.024;2022-07-23T09:38:59;102064.22;;;25.15;100.00
58955;BME280;45815;52.334;5.024;2022-07-23T09:41:34;102066.78;;;25.21;100.00
58955;BME280;45815;52.334;5.024;2022-07-23T09:44:07;102068.19;;;25.39;100.00
58955;BME280;45815;52.334;5.024;2022-07-23T09:46:32;102069.81;;;25.46;99.30
58955;BME280;45815;52.334;5.024;2022-07-23T09:49:10;102064.53;;;25.41;94.04
58955;BME280;45815;52.334;5.024;2022-07-23T09:56:48;102065.00;;;25.59;98.06
58955;BME280;45815;52.334;5.024;2022-07-23T09:59:16;102054.00;;;25.69;98.38
58955;BME280;45815;52.334;5.024;2022-07-23T10:01:43;102058.16;;;25.83;96.80
58955;BME280;45815;52.334;5.024;2022-07-23T10:04:10;102064.16;;;25.94;93.34
58955;BME280;45815;52.334;5.024;2022-07-23T10:06:59;102064.31;;;25.89;92.11
58955;BME280;45815;52.334;5.024;2022-07-23T10:09:44;102062.84;;;26.10;98.30
58955;BME280;45815;52.334;5.024;2022-07-23T10:12:38;102057.88;;;26.29;91.75
58955;BME280;45815;52.334;5.024;2022-07-23T10:15:19;102056.09;;;26.28;89.10
58955;BME280;45815;52.334;5.024;2022-07-23T10:17:45;102064.03;;;26.33;92.42
58955;BME280;45815;52.334;5.024;2022-07-23T10:20:10;102053.50;;;26.25;91.13
58955;BME280;45815;52.334;5.024;2022-07-23T10:22:54;102056.97;;;26.29;96.47
58955;BME280;45815;52.334;5.024;2022-07-23T10:36:09;102054.84;;;27.04;87.98
58955;BME280;45815;52.334;5.024;2022-07-23T10:38:51;102053.63;;;27.14;89.11
58955;BME280;45815;52.334;5.024;2022-07-23T10:41:37;102059.13;;;27.11;82.03
58955;BME280;45815;52.334;5.024;2022-07-23T10:46:57;102048.38;;;27.40;84.87
58955;BME280;45815;52.334;5.024;2022-07-23T10:49:30;102047.59;;;27.63;85.66
58955;BME280;45815;52.334;5.024;2022-07-23T10:54:46;102040.47;;;27.88;86.41
58955;BME280;45815;52.334;5.024;2022-07-23T10:57:13;102038.41;;;27.96;88.17
58955;BME280;45815;52.334;5.024;2022-07-23T11:02:29;102051.63;;;28.04;85.18
58955;BME280;45815;52.334;5.024;2022-07-23T11:05:00;102050.22;;;28.19;83.42
58955;BME280;45815;52.334;5.024;2022-07-23T11:07:26;102035.09;;;28.38;82.95
58955;BME280;45815;52.334;5.024;2022-07-23T11:09:51;102042.63;;;28.55;81.88
58955;BME280;45815;52.334;5.024;2022-07-23T11:15:09;102039.75;;;28.60;79.85
58955;BME280;45815;52.334;5.024;2022-07-23T11:17:38;102034.81;;;28.71;75.55
58955;BME280;45815;52.334;5.024;2022-07-23T11:22:46;102037.66;;;28.68;71.80
58955;BME280;45815;52.334;5.024;2022-07-23T11:25:31;102042.22;;;28.90;75.35
58955;BME280;45815;52.334;5.024;2022-07-23T11:28:10;102043.47;;;29.03;72.29
58955;BME280;45815;52.334;5.024;2022-07-23T11:30:39;102048.31;;;29.18;75.11
58955;BME280;45815;52.334;5.024;2022-07-23T11:35:37;102042.19;;;29.37;70.75
58955;BME280;45815;52.334;5.024;2022-07-23T11:38:06;102044.50;;;29.46;73.42
58955;BME280;45815;52.334;5.024;2022-07-23T11:40:32;102045.25;;;29.50;70.54
58955;BME280;45815;52.334;5.024;2022-07-23T11:43:02;102052.13;;;29.36;71.23
58955;BME280;45815;52.334;5.024;2022-07-23T11:45:43;102038.56;;;28.91;79.29
58955;BME280;45815;52.334;5.024;2022-07-23T11:48:16;102032.47;;;28.62;83.98
58955;BME280;45815;52.334;5.024;2022-07-23T11:50:42;102038.50;;;28.44;84.33
58955;BME280;45815;52.334;5.024;2022-07-23T11:53:08;102046.91;;;28.11;83.92
58955;BME280;45815;52.334;5.024;2022-07-23T11:55:34;102025.88;;;27.67;85.53
58955;BME280;45815;52.334;5.024;2022-07-23T11:58:00;102037.16;;;27.53;87.32
58955;BME280;45815;52.334;5.024;2022-07-23T12:00:28;102038.88;;;27.54;88.09
58955;BME280;45815;52.334;5.024;2022-07-23T12:02:59;102029.25;;;27.74;84.44
58955;BME280;45815;52.334;5.024;2022-07-23T12:05:33;102024.09;;;28.19;81.32
58955;BME280;45815;52.334;5.024;2022-07-23T12:08:00;102021.44;;;28.43;82.50
58955;BME280;45815;52.334;5.024;2022-07-23T12:10:33;102023.41;;;28.63;76.93
58955;BME280;45815;52.334;5.024;2022-07-23T12:13:02;102020.59;;;28.90;80.90
58955;BME280;45815;52.334;5.024;2022-07-23T12:15:31;102020.28;;;29.21;79.15
58955;BME280;45815;52.334;5.024;2022-07-23T12:17:59;102020.84;;;29.51;76.38
58955;BME280;45815;52.334;5.024;2022-07-23T12:20:26;102028.09;;;29.51;75.33
58955;BME280;45815;52.334;5.024;2022-07-23T12:22:56;102019.91;;;29.74;75.99
58955;BME280;45815;52.334;5.024;2022-07-23T12:25:24;102023.50;;;29.95;73.07
58955;BME280;45815;52.334;5.024;2022-07-23T12:28:00;102016.78;;;30.04;71.71
58955;BME280;45815;52.334;5.024;2022-07-23T12:30:30;102004.84;;;30.30;73.69
58955;BME280;45815;52.334;5.024;2022-07-23T12:32:57;102015.06;;;30.44;74.77
58955;BME280;45815;52.334;5.024;2022-07-23T12:35:29;102016.84;;;30.64;73.64
58955;BME280;45815;52.334;5.024;2022-07-23T12:38:00;102003.38;;;30.81;71.04
58955;BME280;45815;52.334;5.024;2022-07-23T12:40:41;102007.22;;;30.96;71.80
58955;BME280;45815;52.334;5.024;2022-07-23T12:43:11;102006.59;;;31.08;71.99
58955;BME280;45815;52.334;5.024;2022-07-23T12:46:00;102002.63;;;31.16;67.51
58955;BME280;45815;52.334;5.024;2022-07-23T12:48:31;102001.94;;;31.12;70.24
58955;BME280;45815;52.334;5.024;2022-07-23T12:51:17;101993.56;;;31.17;66.85
58955;BME280;45815;52.334;5.024;2022-07-23T12:53:45;102001.47;;;31.40;69.56
58955;BME280;45815;52.334;5.024;2022-07-23T12:56:13;101999.25;;;31.29;68.17
58955;BME280;45815;52.334;5.024;2022-07-23T12:58:51;102004.84;;;31.26;64.75
58955;BME280;45815;52.334;5.024;2022-07-23T13:08:59;101993.91;;;31.64;65.56
58955;BME280;45815;52.334;5.024;2022-07-23T13:11:25;101988.94;;;31.90;63.90
58955;BME280;45815;52.334;5.024;2022-07-23T13:13:51;101994.59;;;31.68;65.95
58955;BME280;45815;52.334;5.024;2022-07-23T13:16:16;101986.47;;;31.14;66.53
58955;BME280;45815;52.334;5.024;2022-07-23T13:18:42;101994.16;;;30.85;67.67
58955;BME280;45815;52.334;5.024;2022-07-23T13:21:08;101989.66;;;30.65;69.36
58955;BME280;45815;52.334;5.024;2022-07-23T13:23:34;102000.28;;;30.70;68.44
58955;BME280;45815;52.334;5.024;2022-07-23T13:25:59;101999.84;;;30.60;73.45
58955;BME280;45815;52.334;5.024;2022-07-23T13:28:25;101997.50;;;30.71;73.65